Time;durP1;ratioP1;P1;durP2;ratioP2;P2;SDS_P1;SDS_P2;PMS_P1;PMS_P2;Temp;Humidity;BMP_temperature;BMP_pressure;BME280_temperature;BME280_humidity;BME280_pressure;Samples;Min_cycle;Max_cycle;Signal;HPM_P1;HPM_P2
2023/11/03 00:01:02;;;;;;;;;;;;;;;;;;4962667;28;19918;-84
2023/11/03 00:03:27;;;;;;;;;;;;;;;;;;4968557;28;20550;-85
2023/11/03 00:05:52;;;;;;;;;;;;;;;;;;4963771;28;20408;-83
2023/11/03 00:08:17;;;;;;;;;;;;;;;;;;4967057;28;19985;-84
2023/11/03 00:10:42;;;;;;;;;;;;;;;;;;4971682;28;19918;-83
2023/11/03 00:13:07;;;;;;;;;;;;;;;;;;4975993;28;19922;-85
2023/11/03 00:15:34;;;;;;;;;;;;;;;;;;4965656;28;19918;-84
2023/11/03 00:17:59;;;;;;;;;;;;;;;;;;4963051;28;20013;-84
2023/11/03 00:20:24;;;;;;;;;;;;;;;;;;4963076;28;19957;-84
2023/11/03 00:22:49;;;;;;;;;;;;;;;;;;4960765;28;20391;-84
2023/11/03 00:25:14;;;;;;;;;;;;;;;;;;4975878;28;19998;-84
2023/11/03 00:27:39;;;;;;;;;;;;;;;;;;4985801;28;19918;-85
2023/11/03 00:30:07;;;;;;;;;;;;;;;;;;4966471;28;19918;-83
2023/11/03 00:32:33;;;;;;;;;;;;;;;;;;4962476;28;19956;-82
2023/11/03 00:34:59;;;;;;;;;;;;;;;;;;4968374;28;19926;-84
2023/11/03 00:37:25;;;;;;;;;;;;;;;;;;4970058;28;19922;-83
2023/11/03 00:39:50;;;;;;;;;;;;;;;;;;4977215;28;19964;-85
2023/11/03 00:42:15;;;;;;;;;;;;;;;;;;4960785;28;19919;-83
2023/11/03 00:44:40;;;;;;;;;;;;;;;;;;4960824;28;19922;-84
2023/11/03 00:47:06;;;;;;;;;;;;;;;;;;4961676;28;19922;-84
2023/11/03 00:49:31;;;;;;;;;;;;;;;;;;4960983;28;19972;-83
2023/11/03 00:51:56;;;;;;;;;;;;;;;;;;4960354;28;19926;-84
2023/11/03 00:54:22;;;;;;;;;;;;;;;;;;4959562;28;20371;-82
2023/11/03 00:56:47;;;;;;;;;;;;;;;;;;4973491;28;19969;-83
2023/11/03 00:59:12;;;;;;;;;;;;;;;;;;4960771;28;19949;-82
2023/11/03 01:01:38;;;;;;;;;;;;;;;;;;4960459;28;19917;-84
2023/11/03 01:04:04;;;;;;;;;;;;;;;;;;4959344;28;19925;-85
2023/11/03 01:06:29;;;;;;;;;;;;;;;;;;4958290;28;19918;-84
2023/11/03 01:08:55;;;;;;;;;;;;;;;;;;4962064;28;19973;-84
2023/11/03 01:11:20;;;;;;;;;;;;;;;;;;4961786;28;19926;-83
2023/11/03 01:13:45;;;;;;;;;;;;;;;;;;4975478;28;20025;-84
2023/11/03 01:16:10;;;;;;;;;;;;;;;;;;4972020;28;19978;-84
2023/11/03 01:18:35;;;;;;;;;;;;;;;;;;4958456;28;19918;-84
2023/11/03 01:21:03;;;;;;;;;;;;;;;;;;4972716;28;19946;-85
2023/11/03 01:23:29;;;;;;;;;;;;;;;;;;4965968;28;20116;-84
2023/11/03 01:25:54;;;;;;;;;;;;;;;;;;4961379;28;20077;-85
2023/11/03 01:28:20;;;;;;;;;;;;;;;;;;4957741;28;20058;-85
2023/11/03 01:30:45;;;;;;;;;;;;;;;;;;4962015;28;20351;-84
2023/11/03 01:33:10;;;;;;;;;;;;;;;;;;4967495;28;20383;-84
2023/11/03 01:35:36;;;;;;;;;;;;;;;;;;4965001;28;20340;-85
2023/11/03 01:38:01;;;;;;;;;;;;;;;;;;4958330;28;19980;-85
2023/11/03 01:40:26;;;;;;;;;;;;;;;;;;4972510;28;19919;-83
2023/11/03 01:42:52;;;;;;;;;;;;;;;;;;4978641;28;19945;-84
2023/11/03 01:45:18;;;;;;;;;;;;;;;;;;4963610;28;19918;-84
2023/11/03 01:47:44;;;;;;;;;;;;;;;;;;4959507;28;19922;-83
2023/11/03 01:50:09;;;;;;;;;;;;;;;;;;4972195;28;19922;-83
2023/11/03 01:52:34;;;;;;;;;;;;;;;;;;4964231;28;19930;-84
2023/11/03 01:54:59;;;;;;;;;;;;;;;;;;4964215;28;19925;-84
2023/11/03 01:57:24;;;;;;;;;;;;;;;;;;4957469;28;19933;-83
2023/11/03 01:59:51;;;;;;;;;;;;;;;;;;4972499;28;19929;-82
2023/11/03 02:02:17;;;;;;;;;;;;;;;;;;4971174;28;19918;-84
2023/11/03 02:04:42;;;;;;;;;;;;;;;;;;4976717;28;19926;-84
2023/11/03 02:07:07;;;;;;;;;;;;;;;;;;4957885;28;19919;-83
2023/11/03 02:09:33;;;;;;;;;;;;;;;;;;4957096;28;19918;-84
2023/11/03 02:11:58;;;;;;;;;;;;;;;;;;4975106;28;19971;-84
2023/11/03 02:14:23;;;;;;;;;;;;;;;;;;4973004;28;19918;-83
2023/11/03 02:16:48;;;;;;;;;;;;;;;;;;4959350;28;20435;-84
2023/11/03 02:19:13;;;;;;;;;;;;;;;;;;4962058;28;19926;-84
2023/11/03 02:21:38;;;;;;;;;;;;;;;;;;4959152;28;19966;-83
2023/11/03 02:24:04;;;;;;;;;;;;;;;;;;4972217;28;19918;-83
2023/11/03 02:26:29;;;;;;;;;;;;;;;;;;4964231;28;19930;-84
2023/11/03 02:28:54;;;;;;;;;;;;;;;;;;4971658;28;19919;-83
2023/11/03 02:31:19;;;;;;;;;;;;;;;;;;4957482;28;20415;-84
2023/11/03 02:33:45;;;;;;;;;;;;;;;;;;4970771;28;20364;-83
2023/11/03 02:36:11;;;;;;;;;;;;;;;;;;4958188;28;20357;-83
2023/11/03 02:38:36;;;;;;;;;;;;;;;;;;4959787;28;19922;-84
2023/11/03 02:41:02;;;;;;;;;;;;;;;;;;4956667;28;19968;-83
2023/11/03 02:43:28;;;;;;;;;;;;;;;;;;4960295;28;19924;-84
2023/11/03 02:45:53;;;;;;;;;;;;;;;;;;4959313;28;20028;-84
2023/11/03 02:48:18;;;;;;;;;;;;;;;;;;4974621;28;20332;-82
2023/11/03 02:50:43;;;;;;;;;;;;;;;;;;4974789;28;19918;-83
2023/11/03 02:53:08;;;;;;;;;;;;;;;;;;4974506;28;19934;-83
2023/11/03 02:55:33;;;;;;;;;;;;;;;;;;4962225;28;19918;-84
2023/11/03 02:57:58;;;;;;;;;;;;;;;;;;4961070;28;19922;-83
2023/11/03 03:00:24;;;;;;;;;;;;;;;;;;4970731;28;19922;-84
2023/11/03 03:02:49;;;;;;;;;;;;;;;;;;4961985;28;19944;-82
2023/11/03 03:05:14;;;;;;;;;;;;;;;;;;4956632;28;19918;-84
2023/11/03 03:07:45;;;;;;;;;;;;;;;;;;4969724;28;19933;-83
2023/11/03 03:10:10;;;;;;;;;;;;;;;;;;4956753;28;19918;-84
2023/11/03 03:12:35;;;;;;;;;;;;;;;;;;4955970;28;19989;-83
2023/11/03 03:15:00;;;;;;;;;;;;;;;;;;4972399;28;19937;-83
2023/11/03 03:17:25;;;;;;;;;;;;;;;;;;4959568;28;19926;-84
2023/11/03 03:19:50;;;;;;;;;;;;;;;;;;4977869;28;19919;-83
2023/11/03 03:22:15;;;;;;;;;;;;;;;;;;4959365;28;19926;-83
2023/11/03 03:24:41;;;;;;;;;;;;;;;;;;4960397;28;19926;-84
2023/11/03 03:27:06;;;;;;;;;;;;;;;;;;4959249;28;19918;-83
2023/11/03 03:29:31;;;;;;;;;;;;;;;;;;4974128;28;19986;-83
2023/11/03 03:31:56;;;;;;;;;;;;;;;;;;4969128;28;19933;-83
2023/11/03 03:34:21;;;;;;;;;;;;;;;;;;4971183;28;19926;-82
2023/11/03 03:36:46;;;;;;;;;;;;;;;;;;4971919;28;19918;-82
2023/11/03 03:39:12;;;;;;;;;;;;;;;;;;4971316;28;20277;-84
2023/11/03 03:41:37;;;;;;;;;;;;;;;;;;4959281;28;19919;-84
2023/11/03 03:44:02;;;;;;;;;;;;;;;;;;4971140;28;19926;-83
2023/11/03 03:46:28;;;;;;;;;;;;;;;;;;4959086;28;20379;-82
2023/11/03 03:48:55;;;;;;;;;;;;;;;;;;4962419;28;19928;-83
2023/11/03 03:51:20;;;;;;;;;;;;;;;;;;4959307;28;20000;-82
2023/11/03 03:53:45;;;;;;;;;;;;;;;;;;4965756;28;20300;-83
2023/11/03 03:56:10;;;;;;;;;;;;;;;;;;4976744;28;19937;-84
2023/11/03 03:58:35;;;;;;;;;;;;;;;;;;4958697;28;19990;-84
2023/11/03 04:01:00;;;;;;;;;;;;;;;;;;4970617;28;20021;-83
2023/11/03 04:03:25;;;;;;;;;;;;;;;;;;4970865;28;19924;-82
2023/11/03 04:05:50;;;;;;;;;;;;;;;;;;4956689;28;19918;-82
2023/11/03 04:08:16;;;;;;;;;;;;;;;;;;4958282;28;19926;-83
2023/11/03 04:10:41;;;;;;;;;;;;;;;;;;4956084;28;19919;-82
2023/11/03 04:13:06;;;;;;;;;;;;;;;;;;4957252;28;20344;-81
2023/11/03 04:15:31;;;;;;;;;;;;;;;;;;4955788;28;20131;-85
2023/11/03 04:17:56;;;;;;;;;;;;;;;;;;4954300;28;19982;-85
2023/11/03 04:20:21;;;;;;;;;;;;;;;;;;4954910;28;19918;-83
2023/11/03 04:22:46;;;;;;;;;;;;;;;;;;4954584;28;19929;-84
2023/11/03 04:25:11;;;;;;;;;;;;;;;;;;4969111;28;19919;-83
2023/11/03 04:27:36;;;;;;;;;;;;;;;;;;4953688;28;19918;-82
2023/11/03 04:30:01;;;;;;;;;;;;;;;;;;4967851;28;19918;-83
2023/11/03 04:32:27;;;;;;;;;;;;;;;;;;4956230;28;19923;-83
2023/11/03 04:34:52;;;;;;;;;;;;;;;;;;4956639;28;20387;-83
2023/11/03 04:37:17;;;;;;;;;;;;;;;;;;4972214;28;19957;-84
2023/11/03 04:39:42;;;;;;;;;;;;;;;;;;4962601;28;20049;-84
2023/11/03 04:42:07;;;;;;;;;;;;;;;;;;4973650;28;19986;-82
2023/11/03 04:44:34;;;;;;;;;;;;;;;;;;4967632;28;20009;-83
2023/11/03 04:46:59;;;;;;;;;;;;;;;;;;4972506;28;19933;-83
2023/11/03 04:49:24;;;;;;;;;;;;;;;;;;4967960;28;19918;-82
2023/11/03 04:51:49;;;;;;;;;;;;;;;;;;4968654;28;19918;-82
2023/11/03 04:54:14;;;;;;;;;;;;;;;;;;4984684;28;20005;-85
2023/11/03 04:56:39;;;;;;;;;;;;;;;;;;4956922;28;19922;-83
2023/11/03 04:59:05;;;;;;;;;;;;;;;;;;4955099;28;19998;-83
2023/11/03 05:01:33;;;;;;;;;;;;;;;;;;4973418;28;19925;-83
2023/11/03 05:03:58;;;;;;;;;;;;;;;;;;4958652;28;19926;-84
2023/11/03 05:06:23;;;;;;;;;;;;;;;;;;4968915;28;19926;-84
2023/11/03 05:08:48;;;;;;;;;;;;;;;;;;4968321;28;19926;-83
2023/11/03 05:11:14;;;;;;;;;;;;;;;;;;4953834;28;20300;-82
2023/11/03 05:13:41;;;;;;;;;;;;;;;;;;4952732;28;19985;-83
2023/11/03 05:16:06;;;;;;;;;;;;;;;;;;4952885;28;19965;-83
2023/11/03 05:18:31;;;;;;;;;;;;;;;;;;4968468;28;19918;-83
2023/11/03 05:20:56;;;;;;;;;;;;;;;;;;4968710;28;19932;-83
2023/11/03 05:23:21;;;;;;;;;;;;;;;;;;4968724;28;19918;-83
2023/11/03 05:25:46;;;;;;;;;;;;;;;;;;4955519;28;19918;-83
2023/11/03 05:28:11;;;;;;;;;;;;;;;;;;4968473;28;19949;-83
2023/11/03 05:30:36;;;;;;;;;;;;;;;;;;4968212;28;20382;-83
2023/11/03 05:33:02;;;;;;;;;;;;;;;;;;4960783;28;19929;-82
2023/11/03 05:35:28;;;;;;;;;;;;;;;;;;4955048;28;19918;-84
2023/11/03 05:37:53;;;;;;;;;;;;;;;;;;4968580;28;19953;-82
2023/11/03 05:40:18;;;;;;;;;;;;;;;;;;4967586;28;20044;-83
2023/11/03 05:42:43;;;;;;;;;;;;;;;;;;4954873;28;20009;-83
2023/11/03 05:45:09;;;;;;;;;;;;;;;;;;4952849;28;19922;-83
2023/11/03 05:47:34;;;;;;;;;;;;;;;;;;4967543;28;20300;-82
2023/11/03 05:49:59;;;;;;;;;;;;;;;;;;4960558;28;19925;-82
2023/11/03 05:52:24;;;;;;;;;;;;;;;;;;4953720;28;20251;-83
2023/11/03 05:54:50;;;;;;;;;;;;;;;;;;4955717;28;20280;-83
2023/11/03 05:57:15;;;;;;;;;;;;;;;;;;4955738;28;19918;-83
2023/11/03 05:59:40;;;;;;;;;;;;;;;;;;4958854;28;19919;-84
2023/11/03 06:02:05;;;;;;;;;;;;;;;;;;4958863;28;20404;-82
2023/11/03 06:04:30;;;;;;;;;;;;;;;;;;4969286;28;19919;-83
2023/11/03 06:06:55;;;;;;;;;;;;;;;;;;4959625;28;19929;-82
2023/11/03 06:09:22;;;;;;;;;;;;;;;;;;4969420;28;19926;-82
2023/11/03 06:11:47;;;;;;;;;;;;;;;;;;4962452;28;19923;-82
2023/11/03 06:14:13;;;;;;;;;;;;;;;;;;4958589;28;19985;-83
2023/11/03 06:16:38;;;;;;;;;;;;;;;;;;4958028;28;20005;-83
2023/11/03 06:19:04;;;;;;;;;;;;;;;;;;4955493;28;20360;-83
2023/11/03 06:21:29;;;;;;;;;;;;;;;;;;4955214;28;19918;-83
2023/11/03 06:23:55;;;;;;;;;;;;;;;;;;4973631;28;19918;-83
2023/11/03 06:26:20;;;;;;;;;;;;;;;;;;4969007;28;19939;-83
2023/11/03 06:28:45;;;;;;;;;;;;;;;;;;4954587;28;19919;-83
2023/11/03 06:31:10;;;;;;;;;;;;;;;;;;4954577;28;19919;-82
2023/11/03 06:33:36;;;;;;;;;;;;;;;;;;4960043;28;19937;-81
2023/11/03 06:36:02;;;;;;;;;;;;;;;;;;4956326;28;19949;-83
2023/11/03 06:38:29;;;;;;;;;;;;;;;;;;4954002;28;19925;-84
2023/11/03 06:40:54;;;;;;;;;;;;;;;;;;4969358;28;19996;-82
2023/11/03 06:43:19;;;;;;;;;;;;;;;;;;4969715;28;20013;-83
2023/11/03 06:45:44;;;;;;;;;;;;;;;;;;4969196;28;19934;-82
2023/11/03 06:48:09;;;;;;;;;;;;;;;;;;4954026;28;19926;-82
2023/11/03 06:50:37;;;;;;;;;;;;;;;;;;4958403;28;19918;-84
2023/11/03 06:53:03;;;;;;;;;;;;;;;;;;4971137;28;19937;-83
2023/11/03 06:55:28;;;;;;;;;;;;;;;;;;4959681;28;20009;-83
2023/11/03 06:57:53;;;;;;;;;;;;;;;;;;4974439;28;19929;-84
2023/11/03 07:00:18;;;;;;;;;;;;;;;;;;4961865;28;19918;-83
2023/11/03 07:02:44;;;;;;;;;;;;;;;;;;4959244;28;20101;-83
2023/11/03 07:05:09;;;;;;;;;;;;;;;;;;4961661;28;19921;-86
2023/11/03 07:07:34;;;;;;;;;;;;;;;;;;4955617;28;19925;-86
2023/11/03 07:10:00;;;;;;;;;;;;;;;;;;4955020;28;19990;-84
2023/11/03 07:12:26;;;;;;;;;;;;;;;;;;4969168;28;19930;-85
2023/11/03 07:14:51;;;;;;;;;;;;;;;;;;4963288;28;19918;-83
2023/11/03 07:17:16;;;;;;;;;;;;;;;;;;4960782;28;19952;-85
2023/11/03 07:19:42;;;;;;;;;;;;;;;;;;4956853;28;19960;-84
2023/11/03 07:22:08;;;;;;;;;;;;;;;;;;4964767;28;20379;-82
2023/11/03 07:24:33;;;;;;;;;;;;;;;;;;4979503;28;20347;-82
2023/11/03 07:26:59;;;;;;;;;;;;;;;;;;4969735;28;20016;-83
2023/11/03 07:29:24;;;;;;;;;;;;;;;;;;4962874;28;20287;-83
2023/11/03 07:31:49;;;;;;;;;;;;;;;;;;4970459;28;20360;-83
2023/11/03 07:34:14;;;;;;;;;;;;;;;;;;4970335;28;20340;-83
2023/11/03 07:36:40;;;;;;;;;;;;;;;;;;4953461;28;19926;-85
2023/11/03 07:39:06;;;;;;;;;;;;;;;;;;4963363;28;19918;-84
2023/11/03 07:41:31;;;;;;;;;;;;;;;;;;4959858;28;20030;-84
2023/11/03 07:43:56;;;;;;;;;;;;;;;;;;4970350;28;19942;-84
2023/11/03 07:46:21;;;;;;;;;;;;;;;;;;4951250;28;20070;-83
2023/11/03 07:48:46;;;;;;;;;;;;;;;;;;4958609;28;20300;-83
2023/11/03 07:51:11;;;;;;;;;;;;;;;;;;4958173;28;19941;-83
2023/11/03 07:53:36;;;;;;;;;;;;;;;;;;4953928;28;19922;-83
2023/11/03 07:56:01;;;;;;;;;;;;;;;;;;4969328;28;19918;-83
2023/11/03 07:58:27;;;;;;;;;;;;;;;;;;4955002;28;19926;-84
2023/11/03 08:00:52;;;;;;;;;;;;;;;;;;4966790;28;19929;-83
2023/11/03 08:03:18;;;;;;;;;;;;;;;;;;4970427;28;20252;-83
2023/11/03 08:05:44;;;;;;;;;;;;;;;;;;4963068;28;19918;-85
2023/11/03 08:08:10;;;;;;;;;;;;;;;;;;4964294;28;20431;-83
2023/11/03 08:10:35;;;;;;;;;;;;;;;;;;4959252;28;19919;-80
2023/11/03 08:13:00;;;;;;;;;;;;;;;;;;4958430;28;19941;-84
2023/11/03 08:15:25;;;;;;;;;;;;;;;;;;4971815;28;19933;-83
2023/11/03 08:17:51;;;;;;;;;;;;;;;;;;4960694;28;19973;-83
2023/11/03 08:20:16;;;;;;;;;;;;;;;;;;4956291;28;20365;-83
2023/11/03 08:22:41;;;;;;;;;;;;;;;;;;4956738;28;19918;-84
2023/11/03 08:25:07;;;;;;;;;;;;;;;;;;4957582;28;19926;-82
2023/11/03 08:27:33;;;;;;;;;;;;;;;;;;4971969;28;19919;-83
2023/11/03 08:30:00;;;;;;;;;;;;;;;;;;4960379;28;19922;-82
2023/11/03 08:32:26;;;;;;;;;;;;;;;;;;4960732;28;19930;-83
2023/11/03 08:34:51;;;;;;;;;;;;;;;;;;4965797;28;19933;-82
2023/11/03 08:37:17;;;;;;;;;;;;;;;;;;4971044;28;19918;-84
2023/11/03 08:39:42;;;;;;;;;;;;;;;;;;4957002;28;19915;-81
2023/11/03 08:42:08;;;;;;;;;;;;;;;;;;4969949;28;19929;-81
2023/11/03 08:44:33;;;;;;;;;;;;;;;;;;4955871;28;19922;-82
2023/11/03 08:46:58;;;;;;;;;;;;;;;;;;4955472;28;19926;-84
2023/11/03 08:49:24;;;;;;;;;;;;;;;;;;4960009;28;19915;-83
2023/11/03 08:51:50;;;;;;;;;;;;;;;;;;4970205;28;20013;-82
2023/11/03 08:54:15;;;;;;;;;;;;;;;;;;4957095;28;20403;-81
2023/11/03 08:56:40;;;;;;;;;;;;;;;;;;4955659;28;20021;-83
2023/11/03 08:59:05;;;;;;;;;;;;;;;;;;4959077;28;20089;-83
2023/11/03 09:01:31;;;;;;;;;;;;;;;;;;4963459;28;20008;-84
2023/11/03 09:03:56;;;;;;;;;;;;;;;;;;4972790;28;20332;-84
2023/11/03 09:06:21;;;;;;;;;;;;;;;;;;4955750;28;19918;-83
2023/11/03 09:08:46;;;;;;;;;;;;;;;;;;4969290;28;20419;-83
2023/11/03 09:11:12;;;;;;;;;;;;;;;;;;4959881;28;19930;-83
2023/11/03 09:13:37;;;;;;;;;;;;;;;;;;4955975;28;20373;-83
2023/11/03 09:16:06;;;;;;;;;;;;;;;;;;4956770;28;19925;-84
2023/11/03 09:18:31;;;;;;;;;;;;;;;;;;4975276;28;19973;-83
2023/11/03 09:20:58;;;;;;;;;;;;;;;;;;4977023;28;19918;-81
2023/11/03 09:23:23;;;;;;;;;;;;;;;;;;4973198;28;20110;-83
2023/11/03 09:25:49;;;;;;;;;;;;;;;;;;4972978;28;19922;-81
2023/11/03 09:28:14;;;;;;;;;;;;;;;;;;4979253;28;19918;-83
2023/11/03 09:30:39;;;;;;;;;;;;;;;;;;4974107;28;19972;-81
2023/11/03 09:33:04;;;;;;;;;;;;;;;;;;4959121;28;19923;-83
2023/11/03 09:35:29;;;;;;;;;;;;;;;;;;4956596;28;20391;-82
2023/11/03 09:37:55;;;;;;;;;;;;;;;;;;4958214;28;19961;-84
2023/11/03 09:40:20;;;;;;;;;;;;;;;;;;4942437;28;19918;-83
2023/11/03 09:42:47;;;;;;;;;;;;;;;;;;4973736;28;19918;-82
2023/11/03 09:45:15;;;;;;;;;;;;;;;;;;4975443;28;19925;-82
2023/11/03 09:47:40;;;;;;;;;;;;;;;;;;4978155;28;20442;-83
2023/11/03 09:50:07;;;;;;;;;;;;;;;;;;4977935;28;19914;-82
2023/11/03 09:52:32;;;;;;;;;;;;;;;;;;4975267;28;19926;-82
2023/11/03 09:54:57;;;;;;;;;;;;;;;;;;4975645;28;20306;-82
2023/11/03 09:57:23;;;;;;;;;;;;;;;;;;4985899;28;19924;-83
2023/11/03 09:59:48;;;;;;;;;;;;;;;;;;4984766;28;19952;-83
2023/11/03 10:02:15;;;;;;;;;;;;;;;;;;4980029;28;20335;-84
2023/11/03 10:04:40;;;;;;;;;;;;;;;;;;4978151;28;19921;-82
2023/11/03 10:07:06;;;;;;;;;;;;;;;;;;4983320;28;19952;-83
2023/11/03 10:09:32;;;;;;;;;;;;;;;;;;4990309;28;19996;-82
2023/11/03 10:11:57;;;;;;;;;;;;;;;;;;4977308;28;19921;-82
2023/11/03 10:14:25;;;;;;;;;;;;;;;;;;4975982;28;19956;-83
2023/11/03 10:16:51;;;;;;;;;;;;;;;;;;4984585;28;20265;-82
2023/11/03 10:19:16;;;;;;;;;;;;;;;;;;4975083;28;19945;-83
2023/11/03 10:21:41;;;;;;;;;;;;;;;;;;4974623;28;19925;-82
2023/11/03 10:24:06;;;;;;;;;;;;;;;;;;4974987;28;20388;-82
2023/11/03 10:26:33;;;;;;;;;;;;;;;;;;4977195;28;20320;-83
2023/11/03 10:28:58;;;;;;;;;;;;;;;;;;4975576;28;19918;-85
2023/11/03 10:31:26;;;;;;;;;;;;;;;;;;4978798;28;19929;-83
2023/11/03 10:33:51;;;;;;;;;;;;;;;;;;4974149;28;19922;-84
2023/11/03 10:36:16;;;;;;;;;;;;;;;;;;4974583;28;19940;-82
2023/11/03 10:38:41;;;;;;;;;;;;;;;;;;4974926;28;19914;-83
2023/11/03 10:41:09;;;;;;;;;;;;;;;;;;4975342;28;19930;-82
2023/11/03 10:43:34;;;;;;;;;;;;;;;;;;4974916;28;19993;-83
2023/11/03 10:45:59;;;;;;;;;;;;;;;;;;4974606;28;19921;-83
2023/11/03 10:48:25;;;;;;;;;;;;;;;;;;4958530;28;19926;-83
2023/11/03 10:50:51;;;;;;;;;;;;;;;;;;4974771;28;19918;-83
2023/11/03 10:53:16;;;;;;;;;;;;;;;;;;4975819;28;19937;-83
2023/11/03 10:55:41;;;;;;;;;;;;;;;;;;4974492;28;20356;-83
2023/11/03 10:58:08;;;;;;;;;;;;;;;;;;4980661;28;19956;-82
2023/11/03 11:00:33;;;;;;;;;;;;;;;;;;4975213;28;19918;-83
2023/11/03 11:02:58;;;;;;;;;;;;;;;;;;4974976;28;19918;-82
2023/11/03 11:05:23;;;;;;;;;;;;;;;;;;4975726;28;19981;-84
2023/11/03 11:07:48;;;;;;;;;;;;;;;;;;4974341;28;19984;-83
2023/11/03 11:10:14;;;;;;;;;;;;;;;;;;4973719;28;19925;-82
2023/11/03 11:12:39;;;;;;;;;;;;;;;;;;4974181;28;19922;-82
2023/11/03 11:15:04;;;;;;;;;;;;;;;;;;4973411;28;20077;-82
2023/11/03 11:17:29;;;;;;;;;;;;;;;;;;4960244;28;20360;-82
2023/11/03 11:19:54;;;;;;;;;;;;;;;;;;4975732;28;20404;-83
2023/11/03 11:22:19;;;;;;;;;;;;;;;;;;4973698;28;19997;-83
2023/11/03 11:24:45;;;;;;;;;;;;;;;;;;4974471;28;20000;-84
2023/11/03 11:27:10;;;;;;;;;;;;;;;;;;4959195;28;20041;-83
2023/11/03 11:29:35;;;;;;;;;;;;;;;;;;4979877;28;19984;-84
2023/11/03 11:32:00;;;;;;;;;;;;;;;;;;4978847;28;19997;-84
2023/11/03 11:34:26;;;;;;;;;;;;;;;;;;4974407;28;20341;-83
2023/11/03 11:36:53;;;;;;;;;;;;;;;;;;4973037;28;20008;-83
2023/11/03 11:39:20;;;;;;;;;;;;;;;;;;4979345;28;19922;-83
2023/11/03 11:41:47;;;;;;;;;;;;;;;;;;4979869;28;20384;-84
2023/11/03 11:44:12;;;;;;;;;;;;;;;;;;4969115;28;19918;-84
2023/11/03 11:46:37;;;;;;;;;;;;;;;;;;4982067;28;19924;-83
2023/11/03 11:49:02;;;;;;;;;;;;;;;;;;4979297;28;19918;-84
2023/11/03 11:51:28;;;;;;;;;;;;;;;;;;4980759;28;20172;-84
2023/11/03 11:53:53;;;;;;;;;;;;;;;;;;4979738;28;20059;-83
2023/11/03 11:56:20;;;;;;;;;;;;;;;;;;4983976;28;19925;-84
2023/11/03 11:58:45;;;;;;;;;;;;;;;;;;4979559;28;19918;-84
2023/11/03 12:01:10;;;;;;;;;;;;;;;;;;4981937;28;20027;-82
2023/11/03 12:03:35;;;;;;;;;;;;;;;;;;4977007;28;19918;-84
2023/11/03 12:06:00;;;;;;;;;;;;;;;;;;4979121;28;19918;-84
2023/11/03 12:08:26;;;;;;;;;;;;;;;;;;4984050;28;19925;-82
2023/11/03 12:10:51;;;;;;;;;;;;;;;;;;4978882;28;20444;-84
2023/11/03 12:13:16;;;;;;;;;;;;;;;;;;4978672;28;19928;-82
2023/11/03 12:15:41;;;;;;;;;;;;;;;;;;4978156;28;19918;-83
2023/11/03 12:18:06;;;;;;;;;;;;;;;;;;4987840;28;19922;-83
2023/11/03 12:20:31;;;;;;;;;;;;;;;;;;4982493;28;19964;-82
2023/11/03 12:22:57;;;;;;;;;;;;;;;;;;4977379;28;19933;-82
2023/11/03 12:25:22;;;;;;;;;;;;;;;;;;4982324;28;19922;-84
2023/11/03 12:27:47;;;;;;;;;;;;;;;;;;4980714;28;19933;-83
2023/11/03 12:30:12;;;;;;;;;;;;;;;;;;4979394;28;19973;-84
2023/11/03 12:32:38;;;;;;;;;;;;;;;;;;4984699;28;19922;-85
2023/11/03 12:35:03;;;;;;;;;;;;;;;;;;4980007;28;19929;-83
2023/11/03 12:37:28;;;;;;;;;;;;;;;;;;4983255;28;19926;-82
2023/11/03 12:39:54;;;;;;;;;;;;;;;;;;4978840;28;20386;-87
2023/11/03 12:42:22;;;;;;;;;;;;;;;;;;4973659;28;19973;-85
2023/11/03 12:44:47;;;;;;;;;;;;;;;;;;4982463;28;19985;-85
2023/11/03 12:47:12;;;;;;;;;;;;;;;;;;4980387;28;19961;-83
2023/11/03 12:49:38;;;;;;;;;;;;;;;;;;4979226;28;19918;-83
2023/11/03 12:52:03;;;;;;;;;;;;;;;;;;4976057;28;19925;-82
2023/11/03 12:54:28;;;;;;;;;;;;;;;;;;4975910;28;19922;-84
2023/11/03 12:56:54;;;;;;;;;;;;;;;;;;4979775;28;19918;-83
2023/11/03 12:59:21;;;;;;;;;;;;;;;;;;4976349;28;20009;-81
2023/11/03 13:01:47;;;;;;;;;;;;;;;;;;4978538;28;19918;-83
2023/11/03 13:04:13;;;;;;;;;;;;;;;;;;4983873;28;19972;-81
2023/11/03 13:06:39;;;;;;;;;;;;;;;;;;4982790;28;20358;-83
2023/11/03 13:09:06;;;;;;;;;;;;;;;;;;4976332;28;19918;-81
2023/11/03 13:11:32;;;;;;;;;;;;;;;;;;4977839;28;19917;-82
2023/11/03 13:13:57;;;;;;;;;;;;;;;;;;4978151;28;19921;-82
2023/11/03 13:16:22;;;;;;;;;;;;;;;;;;4980573;28;20064;-84
2023/11/03 13:18:49;;;;;;;;;;;;;;;;;;4977580;28;19950;-82
2023/11/03 13:21:14;;;;;;;;;;;;;;;;;;4979085;28;20399;-84
2023/11/03 13:23:39;;;;;;;;;;;;;;;;;;4980280;28;20316;-82
2023/11/03 13:26:05;;;;;;;;;;;;;;;;;;4980275;28;19938;-82
2023/11/03 13:28:30;;;;;;;;;;;;;;;;;;4980982;28;19929;-82
2023/11/03 13:30:58;;;;;;;;;;;;;;;;;;4979293;28;19929;-84
2023/11/03 13:33:23;;;;;;;;;;;;;;;;;;4977543;28;19922;-82
2023/11/03 13:35:49;;;;;;;;;;;;;;;;;;4978154;28;19929;-84
2023/11/03 13:38:14;;;;;;;;;;;;;;;;;;4980514;28;19926;-83
2023/11/03 13:40:49;;;;;;;;;;;;;;;;;;;;;
2023/11/03 13:43:17;;;;;;;;;;;;;;;;;;4969681;28;20544;-81
2023/11/03 13:45:44;;;;;;;;;;;;;;;;;;4979697;28;19925;-83
2023/11/03 13:48:09;;;;;;;;;;;;;;;;;;4981449;28;19956;-83
2023/11/03 13:50:35;;;;;;;;;;;;;;;;;;4984777;28;20017;-83
2023/11/03 13:53:03;;;;;;;;;;;;;;;;;;4970646;28;19923;-83
2023/11/03 13:55:29;;;;;;;;;;;;;;;;;;4961019;28;20202;-84
2023/11/03 13:57:57;;;;;;;;;;;;;;;;;;4958850;28;19921;-84
2023/11/03 14:00:40;;;;;;;;;;;;;;;;;;4952232;28;19926;-83
2023/11/03 14:03:07;;;;;;;;;;;;;;;;;;4976671;28;20483;-83
2023/11/03 14:05:39;;;;;;;;;;;;;;;;;;4981425;28;19918;-83
2023/11/03 14:08:05;;;;;;;;;;;;;;;;;;4978860;28;19917;-84
2023/11/03 14:10:39;;;;;;;;;;;;;;;;;;4980817;28;19918;-83
2023/11/03 14:13:06;;;;;;;;;;;;;;;;;;4985780;28;19933;-84
2023/11/03 14:15:31;;;;;;;;;;;;;;;;;;4985303;28;19917;-82
2023/11/03 14:17:56;;;;;;;;;;;;;;;;;;4979891;28;20013;-83
2023/11/03 14:20:21;;;;;;;;;;;;;;;;;;4983205;28;19941;-83
2023/11/03 14:22:47;;;;;;;;;;;;;;;;;;4974985;28;19945;-85
2023/11/03 14:25:12;;;;;;;;;;;;;;;;;;4978309;28;19922;-82
2023/11/03 14:27:38;;;;;;;;;;;;;;;;;;4981342;28;19921;-85
2023/11/03 14:30:03;;;;;;;;;;;;;;;;;;4979577;28;19933;-84
2023/11/03 14:32:28;;;;;;;;;;;;;;;;;;4982572;28;20003;-84
2023/11/03 14:34:53;;;;;;;;;;;;;;;;;;4974517;28;20004;-84
2023/11/03 14:37:21;;;;;;;;;;;;;;;;;;4971099;28;19922;-85
2023/11/03 14:39:46;;;;;;;;;;;;;;;;;;4973421;28;19918;-84
2023/11/03 14:42:11;;;;;;;;;;;;;;;;;;4976540;28;19917;-85
2023/11/03 14:44:38;;;;;;;;;;;;;;;;;;4972652;28;20293;-84
2023/11/03 14:47:03;;;;;;;;;;;;;;;;;;4975578;28;20580;-85
2023/11/03 14:49:29;;;;;;;;;;;;;;;;;;4979079;28;20382;-84
2023/11/03 14:51:55;;;;;;;;;;;;;;;;;;4976312;28;20317;-84
2023/11/03 14:54:20;;;;;;;;;;;;;;;;;;4970975;28;19922;-84
2023/11/03 14:56:48;;;;;;;;;;;;;;;;;;4976354;28;19941;-85
2023/11/03 14:59:14;;;;;;;;;;;;;;;;;;4973707;28;19918;-85
2023/11/03 15:01:39;;;;;;;;;;;;;;;;;;4972151;28;19918;-85
2023/11/03 15:04:04;;;;;;;;;;;;;;;;;;4975028;28;19972;-85
2023/11/03 15:06:29;;;;;;;;;;;;;;;;;;4979005;28;20291;-84
2023/11/03 15:08:55;;;;;;;;;;;;;;;;;;4971941;28;19925;-84
2023/11/03 15:11:21;;;;;;;;;;;;;;;;;;4970916;28;19922;-84
2023/11/03 15:13:46;;;;;;;;;;;;;;;;;;4979040;28;19922;-85
2023/11/03 15:16:13;;;;;;;;;;;;;;;;;;4973413;28;19926;-84
2023/11/03 15:18:38;;;;;;;;;;;;;;;;;;4975516;28;20288;-85
2023/11/03 15:21:03;;;;;;;;;;;;;;;;;;4976257;28;20295;-85
2023/11/03 15:23:31;;;;;;;;;;;;;;;;;;4978156;28;19924;-84
2023/11/03 15:25:57;;;;;;;;;;;;;;;;;;4975262;28;19918;-84
2023/11/03 15:28:22;;;;;;;;;;;;;;;;;;4974530;28;19925;-84
2023/11/03 15:30:47;;;;;;;;;;;;;;;;;;4975533;28;19917;-84
2023/11/03 15:33:12;;;;;;;;;;;;;;;;;;4975970;28;19921;-83
2023/11/03 15:35:37;;;;;;;;;;;;;;;;;;4975770;28;20400;-85
2023/11/03 15:38:03;;;;;;;;;;;;;;;;;;4975841;28;19918;-83
2023/11/03 15:40:28;;;;;;;;;;;;;;;;;;4976670;28;19918;-85
2023/11/03 15:42:53;;;;;;;;;;;;;;;;;;4973336;28;19917;-84
2023/11/03 15:45:18;;;;;;;;;;;;;;;;;;4974108;28;19922;-83
2023/11/03 15:47:45;;;;;;;;;;;;;;;;;;4974607;28;19918;-84
2023/11/03 15:50:13;;;;;;;;;;;;;;;;;;4972812;28;19925;-84
2023/11/03 15:52:38;;;;;;;;;;;;;;;;;;4975147;28;19922;-84
2023/11/03 15:55:03;;;;;;;;;;;;;;;;;;4975356;28;19924;-84
2023/11/03 15:57:29;;;;;;;;;;;;;;;;;;4976579;28;19918;-84
2023/11/03 15:59:57;;;;;;;;;;;;;;;;;;4982557;28;20350;-84
2023/11/03 16:02:23;;;;;;;;;;;;;;;;;;4974241;28;20012;-84
2023/11/03 16:04:48;;;;;;;;;;;;;;;;;;4978690;28;19975;-84
2023/11/03 16:07:13;;;;;;;;;;;;;;;;;;4975378;28;19929;-83
2023/11/03 16:09:40;;;;;;;;;;;;;;;;;;4980848;28;19953;-85
2023/11/03 16:12:07;;;;;;;;;;;;;;;;;;4989252;28;19984;-83
2023/11/03 16:14:32;;;;;;;;;;;;;;;;;;4977515;28;20399;-85
2023/11/03 16:16:58;;;;;;;;;;;;;;;;;;4975807;28;20292;-85
2023/11/03 16:19:24;;;;;;;;;;;;;;;;;;4982254;28;20394;-85
2023/11/03 16:24:33;;;;;;;;;;;;;;;;;;4968153;28;19956;-85
2023/11/03 16:26:59;;;;;;;;;;;;;;;;;;4975163;28;19918;-84
2023/11/03 16:29:24;;;;;;;;;;;;;;;;;;4973969;28;20346;-84
2023/11/03 16:31:49;;;;;;;;;;;;;;;;;;4982635;28;20327;-83
2023/11/03 16:34:14;;;;;;;;;;;;;;;;;;4977476;28;19917;-83
2023/11/03 16:36:40;;;;;;;;;;;;;;;;;;4991591;28;19924;-83